Latest Coastal Weather Observations for Cape Ferguson

IDQ60701

Issued at 12:01 pm EST Tuesday 28 April 2015 (issued every 10 minutes, with the page automatically refreshed every 10 minutes)

About coastal observations | Map of coastal stations | Coastal observations for QLD | Marine services | Other Formats
Station Details ID: 032182 Name: CAPE FERGUSON NTC AWS Lat: -19.28 Lon: 147.06 Height: 0.0 m
Data from the previous 72 hours. | See also: Recent months for locations in Queensland
Date/Time
EST
Temp

°C
Wind Pressure Rain
since 9am
mm
Weather Cloud Vis
km
Sea
Height
m
Swell
Dir
 
Speed
knots
Gust
knots
hPa Trend Height
m
Period
s
Dir
28/12:00pm 24.2 ESE 6 9 1017.6 - - - - - - - - -
28/11:30am 24.1 SE 8 10 1018.2 - - - - - - - - -
28/11:00am 23.9 SE 9 11 1018.8 - - - - - - - - -
28/10:30am 23.2 SE 9 11 1019.1 - - - - - - - - -
28/10:00am 23.0 SSE 10 12 1019.2 - - - - - - - - -
28/09:30am 22.6 SSE 9 11 1019.1 - - - - - - - - -
28/09:00am 22.4 SSE 10 11 1019.0 - - - - - - - - -
28/08:30am 22.1 SSE 9 11 1018.8 - - - - - - - - -
28/08:00am 21.6 S 7 9 1018.5 - - - - - - - - -
28/07:30am 20.9 WSW 3 5 1018.2 - - - - - - - - -
28/07:00am 21.0 W 3 6 1018.0 - - - - - - - - -
28/06:30am 21.3 S 9 11 1017.6 - - - - - - - - -
28/06:00am 21.2 SSE 10 13 1017.1 - - - - - - - - -
28/05:30am 21.3 S 10 12 1016.7 - - - - - - - - -
28/05:00am 21.2 S 10 13 1016.7 - - - - - - - - -
28/04:30am 20.7 SW 5 8 1016.5 - - - - - - - - -
28/04:00am 20.2 WNW 4 6 1016.4 - - - - - - - - -
28/03:30am 19.9 NW 3 5 1016.3 - - - - - - - - -
28/03:00am 20.7 SSW 3 5 1016.5 - - - - - - - - -
28/02:30am 21.1 WNW 3 5 1016.5 - - - - - - - - -
28/02:00am 20.1 WNW 2 3 1016.5 - - - - - - - - -
28/01:30am 20.0 WNW 2 3 1016.6 - - - - - - - - -
28/01:00am 21.2 NW 2 3 1017.1 - - - - - - - - -
28/12:30am 21.2 WNW 2 3 1017.5 - - - - - - - - -
28/12:00am 20.2 WNW 2 3 1017.7 - - - - - - - - -
 
Date/Time
EST
Temp

°C
Wind Pressure Rain
since 9am
mm
Weather Cloud Vis
km
Sea
Height
m
Swell
Dir
 
Speed
knots
Gust
knots
hPa Trend Height
m
Period
s
Dir
27/11:30pm 21.0 NW 2 3 1017.9 - - - - - - - - -
27/11:00pm 21.5 NW 2 3 1018.1 - - - - - - - - -
27/10:30pm 22.6 NW 2 3 1018.1 - - - - - - - - -
27/10:00pm 22.6 WNW 3 3 1018.3 - - - - - - - - -
27/09:30pm 22.2 WNW 3 5 1018.2 - - - - - - - - -
27/09:00pm 20.6 NW 3 6 1017.9 - - - - - - - - -
27/08:30pm 25.0 ENE 5 8 1017.4 - - - - - - - - -
27/08:00pm 25.1 E 7 9 1017.2 - - - - - - - - -
27/07:30pm 25.2 E 6 8 1016.7 - - - - - - - - -
27/07:00pm 25.1 ENE 7 9 1016.3 - - - - - - - - -
27/06:30pm 25.1 ENE 8 10 1015.8 - - - - - - - - -
27/06:00pm 25.1 ENE 9 11 1015.5 - - - - - - - - -
27/05:30pm 25.0 ENE 9 11 1015.4 - - - - - - - - -
27/05:00pm 25.0 ENE 8 11 1015.1 - - - - - - - - -
27/04:30pm 25.1 ENE 6 11 1014.8 - - - - - - - - -
27/04:00pm 24.9 NE 6 11 1014.6 - - - - - - - - -
27/03:30pm 24.6 ENE 8 11 1014.4 - - - - - - - - -
27/03:00pm 24.4 ENE 9 12 1014.3 - - - - - - - - -
27/02:30pm 24.3 ENE 10 13 1014.5 - - - - - - - - -
27/02:00pm 24.2 ENE 10 13 1014.6 - - - - - - - - -
27/01:30pm 24.1 E 10 12 1014.9 - - - - - - - - -
27/01:00pm 24.1 E 9 11 1015.3 - - - - - - - - -
27/12:30pm 24.1 E 7 10 1015.8 - - - - - - - - -
27/12:00pm 24.3 ESE 7 9 1016.2 - - - - - - - - -
27/11:30am 24.0 SE 10 12 1016.7 - - - - - - - - -
27/11:00am 23.6 SE 11 14 1017.3 - - - - - - - - -
27/10:30am 23.7 SE 12 15 1017.6 - - - - - - - - -
27/10:00am 23.4 SSE 13 17 1017.9 - - - - - - - - -
27/09:30am 23.3 SSE 14 17 1017.9 - - - - - - - - -
27/09:00am 23.3 S 12 15 1017.5 - - - - - - - - -
27/08:30am 23.2 SSE 13 18 1017.4 - - - - - - - - -
27/08:00am 23.0 S 11 15 1017.2 - - - - - - - - -
27/07:30am 22.3 WSW 4 8 1016.9 - - - - - - - - -
27/07:00am 21.6 WSW 5 7 1016.4 - - - - - - - - -
27/06:30am 22.4 W 5 8 1016.1 - - - - - - - - -
27/06:00am 21.8 W 4 7 1015.7 - - - - - - - - -
27/05:30am 22.5 W 5 7 1015.4 - - - - - - - - -
27/05:00am 21.8 W 7 12 1015.1 - - - - - - - - -
27/04:30am 21.8 WNW 6 8 1014.8 - - - - - - - - -
27/04:00am 21.8 W 4 5 1014.7 - - - - - - - - -
27/03:30am 22.0 W 3 5 1014.7 - - - - - - - - -
27/03:00am 21.6 WNW 3 5 1014.8 - - - - - - - - -
27/02:30am 21.9 WNW 5 6 1014.9 - - - - - - - - -
27/02:00am 20.5 WSW 3 5 1014.9 - - - - - - - - -
27/01:30am 21.7 WNW 4 5 1014.8 - - - - - - - - -
27/01:00am 21.9 W 4 7 1015.0 - - - - - - - - -
27/12:30am 22.0 WNW 5 6 1015.2 - - - - - - - - -
27/12:00am 23.3 WSW 5 7 1015.5 - - - - - - - - -
 
Date/Time
EST
Temp

°C
Wind Pressure Rain
since 9am
mm
Weather Cloud Vis
km
Sea
Height
m
Swell
Dir
 
Speed
knots
Gust
knots
hPa Trend Height
m
Period
s
Dir
26/11:30pm 24.3 SE 7 9 1015.6 - - - - - - - - -
26/11:00pm 25.2 WNW 3 4 1015.4 - - - - - - - - -
26/10:30pm 24.4 WNW 4 5 1015.6 - - - - - - - - -
26/10:00pm 24.4 WNW 5 7 1015.6 - - - - - - - - -
26/09:30pm 24.9 W 4 7 1015.6 - - - - - - - - -
26/09:00pm 24.5 W 4 6 1015.4 - - - - - - - - -
26/08:30pm 24.8 W 5 9 1015.2 - - - - - - - - -
26/08:00pm 25.3 W 5 8 1014.9 - - - - - - - - -
26/07:30pm 25.9 W 5 7 1014.4 - - - - - - - - -
26/07:00pm 26.9 SSE 7 10 1014.0 - - - - - - - - -
26/06:30pm 27.7 SSE 7 9 1013.6 - - - - - - - - -
26/06:00pm 27.7 SSE 8 9 1013.3 - - - - - - - - -
26/05:30pm 28.1 SE 7 9 1012.9 - - - - - - - - -
26/05:00pm 27.9 ENE 5 7 1012.4 - - - - - - - - -
26/04:30pm 28.6 ESE 3 8 1012.1 - - - - - - - - -
26/04:00pm 29.0 NNE 3 6 1011.9 - - - - - - - - -
26/03:30pm 28.7 ESE 3 6 1011.9 - - - - - - - - -
26/03:00pm 28.3 SE 1 2 1012.0 - - - - - - - - -
26/02:30pm 27.9 E 3 5 1012.1 - - - - - - - - -
26/02:00pm 27.3 ESE 6 8 1012.4 - - - - - - - - -
26/01:30pm 26.9 SE 7 9 1012.8 - - - - - - - - -
26/01:00pm 26.6 SE 7 11 1013.1 - - - - - - - - -
26/12:30pm 26.2 SE 7 10 1013.6 - - - - - - - - -
26/12:00pm 25.9 SSE 7 10 1014.1 - - - - - - - - -
26/11:30am 25.4 SE 7 10 1014.6 - - - - - - - - -
26/11:00am 25.0 SSE 9 13 1014.8 - - - - - - - - -
26/10:30am 24.4 SSE 12 17 1015.3 - - - - - - - - -
26/10:00am 24.1 SSE 12 14 1015.3 - - - - - - - - -
26/09:30am 23.7 S 15 18 1015.3 - - - - - - - - -
26/09:00am 23.5 S 17 22 1014.9 - - - - - - - - -
26/08:30am 23.7 S 18 21 1014.4 - - - - - - - - -
26/08:00am 23.8 S 14 19 1014.4 - - - - - - - - -
26/07:30am 23.2 SW 8 20 1014.0 - - - - - - - - -
26/07:24am 23.1 SSW 12 20 1014.0 - - - - - - - - -
26/07:00am 24.2 S 20 26 1013.5 - - - - - - - - -
26/06:30am 24.5 S 16 23 1013.2 - - - - - - - - -
26/06:00am 24.5 SW 6 11 1012.7 - - - - - - - - -
26/05:30am 23.5 W 4 7 1012.3 - - - - - - - - -
26/05:00am 24.8 SSW 5 13 1012.1 - - - - - - - - -
26/04:30am 25.6 S 11 15 1011.8 - - - - - - - - -
26/04:00am 25.5 S 10 13 1011.6 - - - - - - - - -
26/03:30am 25.4 S 11 13 1011.4 - - - - - - - - -
26/03:00am 25.3 SSW 6 8 1011.5 - - - - - - - - -
26/02:30am 23.6 W 4 6 1011.6 - - - - - - - - -
26/02:00am 22.9 WNW 2 7 1011.7 - - - - - - - - -
26/01:30am 23.2 W 2 4 1011.7 - - - - - - - - -
26/01:00am 22.9 W 4 7 1012.0 - - - - - - - - -
26/12:30am 24.1 SSW 8 10 1012.3 - - - - - - - - -
26/12:00am 25.1 WSW 6 9 1012.5 - - - - - - - - -
 
Date/Time
EST
Temp

°C
Wind Pressure Rain
since 9am
mm
Weather Cloud Vis
km
Sea
Height
m
Swell
Dir
 
Speed
knots
Gust
knots
hPa Trend Height
m
Period
s
Dir
25/11:30pm 24.7 WSW 5 8 1012.7 - - - - - - - - -
25/11:00pm 23.6 WNW 2 3 1012.5 - - - - - - - - -
25/10:30pm 24.2 W 2 7 1012.5 - - - - - - - - -
25/10:00pm 24.7 SW 2 5 1012.5 - - - - - - - - -
25/09:30pm 23.9 WNW 4 5 1012.5 - - - - - - - - -
25/09:00pm 25.5 SSE 3 5 1012.6 - - - - - - - - -
25/08:30pm 25.8 NE 3 6 1012.3 - - - - - - - - -
25/08:00pm 24.9 W 3 3 1011.8 - - - - - - - - -
25/07:30pm 25.9 WNW 1 3 1011.4 - - - - - - - - -
25/07:00pm 25.6 WSW 1 2 1011.1 - - - - - - - - -
25/06:30pm 26.0 NNW 4 7 1010.8 - - - - - - - - -
25/06:00pm 26.2 N 3 6 1010.5 - - - - - - - - -
25/05:30pm 26.6 N 5 9 1010.2 - - - - - - - - -
25/05:00pm 27.1 NNW 3 8 1009.9 - - - - - - - - -
25/04:30pm 27.0 NW 4 10 1009.4 - - - - - - - - -
25/04:00pm 26.7 ESE 2 8 1009.0 - - - - - - - - -
25/03:30pm 26.7 NNW 4 9 1008.7 - - - - - - - - -
25/03:00pm 26.6 NNE 4 11 1008.7 - - - - - - - - -
25/02:30pm 26.4 ENE 6 13 1008.9 - - - - - - - - -
25/02:00pm 26.1 NE 6 14 1009.2 - - - - - - - - -
25/01:30pm 26.0 NE 7 13 1009.5 - - - - - - - - -
25/01:00pm 26.2 NE 7 12 1010.0 - - - - - - - - -
25/12:30pm 26.1 NNE 7 12 1010.5 - - - - - - - - -

Other Formats:

Comma delimited format used in spreadsheet applications
http://www.bom.gov.au/fwo/IDQ60701/IDQ60701.94297.axf

JavaScript Object Notation format (JSON) in row-major order
http://www.bom.gov.au/fwo/IDQ60701/IDQ60701.94297.json